createdAt,value
2019-04-28T00:02:02.214Z,8.10
2019-04-28T00:04:31.537Z,8.20
2019-04-28T00:07:01.741Z,8.30
2019-04-28T00:09:31.378Z,8.40
2019-04-28T00:12:01.690Z,8.40
2019-04-28T00:14:31.700Z,8.40
2019-04-28T00:17:01.060Z,8.50
2019-04-28T00:19:30.987Z,8.50
2019-04-28T00:22:04.595Z,8.50
2019-04-28T00:24:41.642Z,8.50
2019-04-28T00:27:11.684Z,8.60
2019-04-28T00:29:45.620Z,8.50
2019-04-28T00:32:11.213Z,8.60
2019-04-28T00:34:41.248Z,8.60
2019-04-28T00:37:11.631Z,8.50
2019-04-28T00:39:40.954Z,8.40
2019-04-28T00:42:11.639Z,8.00
2019-04-28T00:44:41.718Z,7.60
2019-04-28T00:47:11.172Z,7.50
2019-04-28T00:49:48.872Z,7.60
2019-04-28T00:52:21.976Z,7.60
2019-04-28T00:54:52.336Z,7.60
2019-04-28T00:57:21.145Z,7.50
2019-04-28T00:59:57.609Z,7.50
2019-04-28T01:02:25.931Z,7.20
2019-04-28T01:04:54.597Z,7.20
2019-04-28T01:07:23.305Z,7.30
2019-04-28T01:09:51.825Z,7.30
2019-04-28T01:12:21.264Z,7.30
2019-04-28T01:14:52.247Z,7.20
2019-04-28T01:17:22.268Z,7.20
2019-04-28T01:19:52.387Z,7.20
2019-04-28T01:22:20.876Z,7.30
2019-04-28T01:24:49.794Z,7.30
2019-04-28T01:27:30.367Z,7.30
2019-04-28T01:30:07.997Z,7.30
2019-04-28T01:32:41.517Z,7.30
2019-04-28T01:35:10.688Z,7.20
2019-04-28T01:37:40.761Z,7.20
2019-04-28T01:40:10.110Z,7.20
2019-04-28T01:42:38.561Z,7.30
2019-04-28T01:45:07.483Z,7.40
2019-04-28T01:47:35.964Z,7.40
2019-04-28T01:50:05.163Z,7.60
2019-04-28T01:52:33.889Z,7.70
2019-04-28T01:55:02.739Z,7.70
2019-04-28T01:57:31.154Z,7.70
2019-04-28T01:59:59.964Z,7.70
2019-04-28T02:02:35.169Z,7.60
2019-04-28T02:05:04.856Z,7.40
2019-04-28T02:07:33.307Z,7.30
2019-04-28T02:10:01.904Z,7.20
2019-04-28T02:12:30.621Z,7.30
2019-04-28T02:15:00.955Z,7.30
2019-04-28T02:17:30.412Z,7.40
2019-04-28T02:20:00.599Z,7.30
2019-04-28T02:22:31.951Z,7.30
2019-04-28T02:25:00.447Z,7.40
2019-04-28T02:27:30.508Z,7.50
2019-04-28T02:30:00.075Z,7.40
2019-04-28T02:32:30.925Z,7.30
2019-04-28T02:35:01.148Z,7.20
2019-04-28T02:37:30.794Z,7.20
2019-04-28T02:40:02.834Z,7.20
2019-04-28T02:42:30.884Z,7.20
2019-04-28T02:45:00.773Z,7.10
2019-04-28T02:47:33.477Z,7.10
2019-04-28T02:50:01.622Z,7.10
2019-04-28T02:52:51.587Z,7.10
2019-04-28T02:55:21.178Z,7.10
2019-04-28T02:57:51.406Z,7.20
2019-04-28T03:00:21.579Z,7.20
2019-04-28T03:02:51.316Z,7.20
2019-04-28T03:05:21.691Z,7.20
2019-04-28T03:07:51.556Z,7.20
2019-04-28T03:10:21.427Z,7.20
2019-04-28T03:12:51.924Z,7.30
2019-04-28T03:15:20.719Z,7.40
2019-04-28T03:17:52.549Z,7.50
2019-04-28T03:20:21.117Z,7.60
2019-04-28T03:22:51.211Z,7.60
2019-04-28T03:25:21.431Z,7.60
2019-04-28T03:27:54.615Z,7.60
2019-04-28T03:30:43.775Z,7.60
2019-04-28T03:33:18.449Z,7.50
2019-04-28T03:35:44.242Z,7.50
2019-04-28T03:38:12.886Z,7.40
2019-04-28T03:40:41.587Z,7.50
2019-04-28T03:43:13.895Z,7.50
2019-04-28T03:45:45.250Z,7.50
2019-04-28T03:48:13.751Z,7.50
2019-04-28T03:50:42.267Z,7.60
2019-04-28T03:53:11.177Z,7.60
2019-04-28T03:55:41.697Z,7.60
2019-04-28T03:58:10.474Z,7.60
2019-04-28T04:00:40.856Z,7.60
2019-04-28T04:03:10.913Z,7.50
2019-04-28T04:05:40.668Z,7.50
2019-04-28T04:08:10.998Z,7.50
2019-04-28T04:10:50.745Z,7.50
2019-04-28T04:13:33.363Z,7.50
2019-04-28T04:16:12.150Z,7.40
2019-04-28T04:18:53.014Z,7.40
2019-04-28T04:21:21.185Z,7.40
2019-04-28T04:23:50.997Z,7.40
2019-04-28T04:26:21.251Z,7.40
2019-04-28T04:28:51.551Z,7.30
2019-04-28T04:31:20.065Z,7.20
2019-04-28T04:33:50.562Z,7.10
2019-04-28T04:36:21.089Z,7.10
2019-04-28T04:38:51.401Z,7.00
2019-04-28T04:41:20.237Z,7.10
2019-04-28T04:43:51.355Z,7.10
2019-04-28T04:46:21.991Z,7.10
2019-04-28T04:48:51.317Z,7.10
2019-04-28T04:51:21.356Z,7.10
2019-04-28T04:53:51.247Z,7.20
2019-04-28T04:56:21.202Z,7.30
2019-04-28T04:58:50.683Z,7.30
2019-04-28T05:01:27.033Z,7.40
2019-04-28T05:04:09.568Z,7.40
2019-04-28T05:06:39.947Z,7.40
2019-04-28T05:09:10.416Z,7.30
2019-04-28T05:11:40.174Z,7.30
2019-04-28T05:14:11.492Z,7.40
2019-04-28T05:16:40.008Z,7.40
2019-04-28T05:19:10.061Z,7.50
2019-04-28T05:21:40.090Z,7.50
2019-04-28T05:24:15.625Z,7.50
2019-04-28T05:26:47.669Z,7.30
2019-04-28T05:29:19.920Z,7.10
2019-04-28T05:31:46.338Z,6.90
2019-04-28T05:34:14.923Z,6.80
2019-04-28T05:36:44.657Z,6.70
2019-04-28T05:39:13.535Z,6.70
2019-04-28T05:41:42.071Z,6.80
2019-04-28T05:44:10.510Z,6.90
2019-04-28T05:46:40.238Z,7.00
2019-04-28T05:49:13.740Z,7.00
2019-04-28T05:52:00.569Z,7.00
2019-04-28T05:54:33.590Z,6.90
2019-04-28T05:57:03.786Z,6.80
2019-04-28T05:59:42.967Z,6.50
2019-04-28T06:02:13.238Z,6.40
2019-04-28T06:04:41.785Z,6.30
2019-04-28T06:07:12.257Z,6.10
2019-04-28T06:09:42.486Z,5.60
2019-04-28T06:12:12.745Z,5.20
2019-04-28T06:14:41.264Z,4.90
2019-04-28T06:17:10.843Z,4.80
2019-04-28T06:19:40.304Z,4.60
2019-04-28T06:22:09.143Z,4.60
2019-04-28T06:24:37.690Z,4.50
2019-04-28T06:27:06.210Z,4.50
2019-04-28T06:29:34.732Z,4.40
2019-04-28T06:32:03.345Z,4.30
2019-04-28T06:34:32.419Z,4.20
2019-04-28T06:37:00.970Z,4.10
2019-04-28T06:39:29.504Z,4.10
2019-04-28T06:41:58.192Z,4.10
2019-04-28T06:44:26.739Z,4.00
2019-04-28T06:46:55.196Z,4.00
2019-04-28T06:49:23.746Z,4.10
2019-04-28T06:51:52.291Z,4.10
2019-04-28T06:54:20.812Z,4.10
2019-04-28T06:56:49.410Z,4.00
2019-04-28T06:59:17.925Z,4.10
2019-04-28T07:01:46.479Z,4.10
2019-04-28T07:04:14.926Z,4.10
2019-04-28T07:06:43.401Z,4.20
2019-04-28T07:09:12.320Z,4.30
2019-04-28T07:11:40.940Z,4.30
2019-04-28T07:14:09.415Z,4.30
2019-04-28T07:16:37.863Z,4.40
2019-04-28T07:19:06.505Z,4.20
2019-04-28T07:21:45.947Z,4.10
2019-04-28T07:24:14.507Z,4.10
2019-04-28T07:26:43.416Z,4.20
2019-04-28T07:29:11.976Z,4.30
2019-04-28T07:31:40.497Z,4.40
2019-04-28T07:34:09.282Z,4.50
2019-04-28T07:36:37.941Z,4.60
2019-04-28T07:39:07.401Z,4.60
2019-04-28T07:41:35.947Z,4.60
2019-04-28T07:44:04.490Z,4.60
2019-04-28T07:46:32.944Z,4.60
2019-04-28T07:49:01.398Z,4.80
2019-04-28T07:51:31.632Z,4.80
2019-04-28T07:54:11.073Z,4.90
2019-04-28T07:56:39.545Z,4.80
2019-04-28T07:59:08.066Z,4.80
2019-04-28T08:01:36.623Z,4.80
2019-04-28T08:04:05.450Z,5.00
2019-04-28T08:06:33.896Z,5.00
2019-04-28T08:09:02.599Z,5.00
2019-04-28T08:11:31.198Z,5.10
2019-04-28T08:13:59.647Z,5.30
2019-04-28T08:16:28.266Z,5.30
2019-04-28T08:18:56.746Z,5.50
2019-04-28T08:21:25.324Z,5.60
2019-04-28T08:23:54.205Z,5.80
2019-04-28T08:26:22.668Z,5.70
2019-04-28T08:28:51.136Z,5.60
2019-04-28T08:31:21.222Z,5.70
2019-04-28T08:34:01.819Z,5.90
2019-04-28T08:36:21.721Z,6.20
2019-04-28T08:38:50.334Z,6.20
2019-04-28T08:41:19.214Z,6.20
2019-04-28T08:43:47.927Z,6.00
2019-04-28T08:46:16.376Z,5.90
2019-04-28T08:48:44.971Z,6.00
2019-04-28T08:51:13.547Z,6.00
2019-04-28T08:53:42.109Z,6.10
2019-04-28T08:56:10.726Z,6.20
2019-04-28T08:58:39.250Z,6.00
2019-04-28T09:01:07.794Z,6.00
2019-04-28T09:03:36.249Z,6.10
2019-04-28T09:06:04.723Z,6.10
2019-04-28T09:08:33.178Z,6.10
2019-04-28T09:11:01.696Z,6.10
2019-04-28T09:13:30.185Z,6.20
2019-04-28T09:15:58.719Z,6.30
2019-04-28T09:18:27.202Z,6.30
2019-04-28T09:20:55.723Z,6.30
2019-04-28T09:23:24.283Z,6.50
2019-04-28T09:25:52.747Z,6.60
2019-04-28T09:28:21.230Z,6.70
2019-04-28T09:30:49.779Z,6.70
2019-04-28T09:33:18.248Z,6.60
2019-04-28T09:35:47.131Z,6.50
2019-04-28T09:38:15.754Z,6.40
2019-04-28T09:40:44.304Z,6.40
2019-04-28T09:43:23.422Z,6.50
2019-04-28T09:45:53.975Z,6.50
2019-04-28T09:48:22.458Z,6.50
2019-04-28T09:50:51.120Z,6.60
2019-04-28T09:53:19.807Z,6.70
2019-04-28T09:55:48.327Z,6.60
2019-04-28T09:58:16.795Z,6.70
2019-04-28T10:00:45.343Z,6.80
2019-04-28T10:03:13.854Z,6.80
2019-04-28T10:05:42.312Z,6.90
2019-04-28T10:08:10.787Z,7.00
2019-04-28T10:10:39.230Z,7.10
2019-04-28T10:13:08.063Z,7.00
2019-04-28T10:15:36.603Z,7.00
2019-04-28T10:18:05.123Z,7.10
2019-04-28T10:20:33.728Z,7.20
2019-04-28T10:23:02.347Z,7.30
2019-04-28T10:25:30.866Z,7.50
2019-04-28T10:27:59.347Z,7.60
2019-04-28T10:30:27.955Z,7.50
2019-04-28T10:32:56.448Z,7.30
2019-04-28T10:35:25.339Z,7.20
2019-04-28T10:37:53.787Z,7.10
2019-04-28T10:40:51.173Z,7.10
2019-04-28T10:43:19.691Z,7.20
2019-04-28T10:45:50.011Z,7.40
2019-04-28T10:48:18.460Z,7.60
2019-04-28T10:50:47.219Z,7.30
2019-04-28T10:53:16.105Z,7.10
2019-04-28T10:55:44.798Z,7.10
2019-04-28T10:58:13.376Z,6.90
2019-04-28T11:00:42.190Z,6.90
2019-04-28T11:03:10.707Z,6.90
2019-04-28T11:05:43.362Z,6.90
2019-04-28T11:08:30.432Z,6.90
2019-04-28T11:11:00.618Z,7.00
2019-04-28T11:13:29.417Z,7.10
2019-04-28T11:15:57.901Z,7.10
2019-04-28T11:18:26.483Z,7.20
2019-04-28T11:20:55.522Z,7.40
2019-04-28T11:23:24.226Z,7.60
2019-04-28T11:25:52.934Z,7.60
2019-04-28T11:28:22.898Z,7.70
2019-04-28T11:30:51.392Z,7.80
2019-04-28T11:33:39.915Z,7.80
2019-04-28T11:36:08.503Z,7.70
2019-04-28T11:38:36.954Z,7.80
2019-04-28T11:41:06.270Z,7.80
2019-04-28T11:43:34.781Z,7.60
2019-04-28T11:46:04.694Z,7.60
2019-04-28T11:48:33.579Z,7.70
2019-04-28T11:51:02.035Z,7.60
2019-04-28T11:53:30.560Z,7.60
2019-04-28T11:55:59.204Z,7.60
2019-04-28T11:58:28.027Z,7.80
2019-04-28T12:00:56.679Z,7.80
2019-04-28T12:03:25.497Z,7.70
2019-04-28T12:05:54.097Z,7.60
2019-04-28T12:08:22.510Z,7.60
2019-04-28T12:11:04.848Z,7.60
2019-04-28T12:13:38.127Z,7.70
2019-04-28T12:16:24.795Z,7.80
2019-04-28T12:18:55.288Z,7.80
2019-04-28T12:21:23.731Z,7.70
2019-04-28T12:23:52.211Z,7.80
2019-04-28T12:26:20.677Z,7.90
2019-04-28T12:28:49.433Z,8.20
2019-04-28T12:31:18.062Z,8.20
2019-04-28T12:33:46.520Z,8.20
2019-04-28T12:36:15.063Z,8.10
2019-04-28T12:38:43.606Z,8.10
2019-04-28T12:41:12.066Z,8.30
2019-04-28T12:43:40.717Z,8.30
2019-04-28T12:46:09.238Z,8.30
2019-04-28T12:48:37.819Z,8.30
2019-04-28T12:51:06.358Z,8.00
2019-04-28T12:53:35.142Z,8.00
2019-04-28T12:56:03.755Z,8.20
2019-04-28T12:58:32.276Z,8.50
2019-04-28T13:01:02.527Z,8.80
2019-04-28T13:03:32.643Z,8.90
2019-04-28T13:06:05.727Z,8.80
2019-04-28T13:08:33.129Z,8.30
2019-04-28T13:11:01.704Z,8.30
2019-04-28T13:13:30.571Z,8.50
2019-04-28T13:15:59.018Z,8.60
2019-04-28T13:18:27.493Z,8.90
2019-04-28T13:20:58.811Z,9.00
2019-04-28T13:23:26.117Z,9.20
2019-04-28T13:25:54.730Z,9.40
2019-04-28T13:28:23.177Z,9.50
2019-04-28T13:30:51.804Z,9.50
2019-04-28T13:33:20.400Z,9.50
2019-04-28T13:35:48.994Z,9.50
2019-04-28T13:38:17.471Z,9.70
2019-04-28T13:40:46.049Z,9.80
2019-04-28T13:43:14.575Z,9.70
2019-04-28T13:45:43.089Z,9.70
2019-04-28T13:48:11.705Z,9.70
2019-04-28T13:50:40.162Z,9.80
2019-04-28T13:53:09.154Z,9.80
2019-04-28T13:55:39.772Z,9.80
2019-04-28T13:58:08.369Z,9.90
2019-04-28T14:00:41.480Z,10.00
2019-04-28T14:03:26.645Z,9.90
2019-04-28T14:06:09.020Z,9.70
2019-04-28T14:08:37.517Z,9.60
2019-04-28T14:11:06.190Z,9.70
2019-04-28T14:13:34.801Z,9.70
2019-04-28T14:16:03.748Z,9.40
2019-04-28T14:18:32.282Z,9.20
2019-04-28T14:21:00.832Z,9.30
2019-04-28T14:23:29.300Z,9.40
2019-04-28T14:25:57.949Z,9.50
2019-04-28T14:28:26.511Z,9.60
2019-04-28T14:30:55.096Z,9.30
2019-04-28T14:33:23.614Z,8.90
2019-04-28T14:35:52.122Z,8.70
2019-04-28T14:38:20.742Z,8.70
2019-04-28T14:40:49.321Z,8.70
2019-04-28T14:43:18.430Z,8.80
2019-04-28T14:45:47.092Z,8.60
2019-04-28T14:48:15.641Z,8.60
2019-04-28T14:50:44.273Z,8.60
2019-04-28T14:53:12.894Z,8.70
2019-04-28T14:55:41.498Z,8.80
2019-04-28T14:58:09.978Z,8.90
2019-04-28T15:00:40.070Z,8.90
2019-04-28T15:03:10.163Z,9.00
2019-04-28T15:05:56.606Z,9.00
2019-04-28T15:08:26.711Z,9.10
2019-04-28T15:10:56.803Z,8.80
2019-04-28T15:13:26.043Z,8.70
2019-04-28T15:15:54.556Z,8.70
2019-04-28T15:18:23.002Z,9.00
2019-04-28T15:20:51.548Z,9.50
2019-04-28T15:23:20.066Z,9.80
2019-04-28T15:25:48.515Z,10.00
2019-04-28T15:28:17.052Z,10.20
2019-04-28T15:30:45.671Z,10.50
2019-04-28T15:33:14.190Z,10.80
2019-04-28T15:35:42.814Z,10.90
2019-04-28T15:38:11.266Z,10.90
2019-04-28T15:40:39.783Z,11.10
2019-04-28T15:43:08.270Z,11.30
2019-04-28T15:45:36.813Z,11.40
2019-04-28T15:48:05.430Z,11.50
2019-04-28T15:50:33.909Z,11.70
2019-04-28T15:53:02.521Z,11.80
2019-04-28T15:55:35.593Z,11.90
2019-04-28T15:58:22.331Z,11.90
2019-04-28T16:00:50.802Z,12.00
2019-04-28T16:03:19.317Z,11.80
2019-04-28T16:05:47.900Z,11.50
2019-04-28T16:08:16.349Z,11.20
2019-04-28T16:10:44.893Z,11.00
2019-04-28T16:13:13.370Z,10.80
2019-04-28T16:15:41.892Z,10.80
2019-04-28T16:18:10.459Z,10.90
2019-04-28T16:20:38.938Z,10.90
2019-04-28T16:23:07.460Z,10.80
2019-04-28T16:25:37.290Z,10.80
2019-04-28T16:28:05.923Z,10.60
2019-04-28T16:30:34.791Z,10.50
2019-04-28T16:33:03.394Z,10.30
2019-04-28T16:35:31.887Z,10.30
2019-04-28T16:38:00.729Z,10.20
2019-04-28T16:40:29.835Z,10.20
2019-04-28T16:42:58.944Z,10.20
2019-04-28T16:45:27.538Z,10.30
2019-04-28T16:47:56.097Z,10.30
2019-04-28T16:50:24.581Z,10.40
2019-04-28T16:52:53.026Z,10.40
2019-04-28T16:55:23.205Z,10.40
2019-04-28T16:57:59.202Z,10.50
2019-04-28T17:00:35.263Z,10.40
2019-04-28T17:03:03.917Z,10.40
2019-04-28T17:05:32.755Z,10.20
2019-04-28T17:08:01.348Z,10.10
2019-04-28T17:10:29.823Z,10.00
2019-04-28T17:12:58.274Z,9.80
2019-04-28T17:15:26.731Z,9.80
2019-04-28T17:17:55.223Z,9.40
2019-04-28T17:20:23.734Z,9.10
2019-04-28T17:22:52.182Z,9.00
2019-04-28T17:25:20.733Z,8.90
2019-04-28T17:27:49.271Z,8.60
2019-04-28T17:30:19.214Z,8.20
2019-04-28T17:32:47.644Z,8.10
2019-04-28T17:35:16.122Z,8.10
2019-04-28T17:37:44.662Z,8.00
2019-04-28T17:40:13.631Z,7.90
2019-04-28T17:42:42.214Z,7.90
2019-04-28T17:45:11.623Z,7.90
2019-04-28T17:47:40.147Z,7.80
2019-04-28T17:50:10.227Z,7.70
2019-04-28T17:52:38.743Z,7.60
2019-04-28T17:55:07.367Z,7.40
2019-04-28T17:57:35.950Z,7.40
2019-04-28T18:00:24.455Z,7.40
2019-04-28T18:02:57.537Z,7.50
2019-04-28T18:05:27.757Z,7.50
2019-04-28T18:07:57.881Z,7.40
2019-04-28T18:10:28.197Z,7.40
2019-04-28T18:13:00.841Z,7.30
2019-04-28T18:15:40.973Z,7.40
2019-04-28T18:18:11.162Z,7.40
2019-04-28T18:20:39.642Z,7.50
2019-04-28T18:23:08.298Z,7.50
2019-04-28T18:25:36.802Z,7.50
2019-04-28T18:28:05.348Z,7.60
2019-04-28T18:30:35.435Z,7.50
2019-04-28T18:33:17.606Z,7.50
2019-04-28T18:35:50.593Z,7.60
2019-04-28T18:38:33.981Z,7.70
2019-04-28T18:40:52.735Z,7.80
2019-04-28T18:43:22.973Z,7.90
2019-04-28T18:45:51.458Z,7.90
2019-04-28T18:48:19.922Z,8.00
2019-04-28T18:50:48.398Z,7.90
2019-04-28T18:53:16.842Z,7.90
2019-04-28T18:55:45.319Z,7.90
2019-04-28T18:58:13.893Z,7.90
2019-04-28T19:00:44.109Z,7.90
2019-04-28T19:03:12.976Z,7.90
2019-04-28T19:05:43.159Z,8.00
2019-04-28T19:08:13.256Z,8.00
2019-04-28T19:10:55.234Z,7.90
2019-04-28T19:13:27.991Z,7.80
2019-04-28T19:16:07.015Z,7.50
2019-04-28T19:18:42.915Z,7.10
2019-04-28T19:21:11.394Z,6.90
2019-04-28T19:23:39.918Z,7.00
2019-04-28T19:26:08.467Z,7.00
2019-04-28T19:28:36.911Z,7.10
2019-04-28T19:31:05.444Z,7.10
2019-04-28T19:33:33.990Z,7.00
2019-04-28T19:36:02.447Z,7.00
2019-04-28T19:38:30.892Z,7.10
2019-04-28T19:40:59.383Z,7.10
2019-04-28T19:43:28.211Z,7.10
2019-04-28T19:45:58.439Z,7.20
2019-04-28T19:48:26.915Z,7.20
2019-04-28T19:50:55.432Z,7.40
2019-04-28T19:53:23.999Z,7.50
2019-04-28T19:55:56.941Z,7.60
2019-04-28T19:58:30.014Z,7.80
2019-04-28T20:01:00.565Z,7.80
2019-04-28T20:03:29.098Z,7.90
2019-04-28T20:05:57.935Z,8.00
2019-04-28T20:08:26.411Z,8.00
2019-04-28T20:10:55.218Z,8.10
2019-04-28T20:13:23.823Z,8.10
2019-04-28T20:15:52.677Z,8.00
2019-04-28T20:18:21.124Z,8.10
2019-04-28T20:20:49.612Z,8.00
2019-04-28T20:23:18.130Z,8.00
2019-04-28T20:25:46.573Z,7.90
2019-04-28T20:28:15.050Z,7.80
2019-04-28T20:30:43.504Z,7.80
2019-04-28T20:33:11.950Z,7.80
2019-04-28T20:35:42.163Z,7.80
2019-04-28T20:38:18.337Z,7.80
2019-04-28T20:40:48.519Z,7.80
2019-04-28T20:43:18.570Z,7.80
2019-04-28T20:45:47.354Z,7.90
2019-04-28T20:48:16.247Z,7.90
2019-04-28T20:50:44.657Z,8.00
2019-04-28T20:53:13.217Z,8.00
2019-04-28T20:55:42.096Z,7.90
2019-04-28T20:58:10.548Z,7.90
2019-04-28T21:00:39.098Z,7.90
2019-04-28T21:03:07.670Z,7.80
2019-04-28T21:05:36.234Z,7.80
2019-04-28T21:08:04.781Z,7.90
2019-04-28T21:10:38.372Z,7.90
2019-04-28T21:13:03.638Z,7.90
2019-04-28T21:15:32.127Z,7.90
2019-04-28T21:18:00.599Z,7.90
2019-04-28T21:20:29.052Z,7.80
2019-04-28T21:22:57.588Z,7.80
2019-04-28T21:25:26.103Z,7.70
2019-04-28T21:27:54.604Z,7.60
2019-04-28T21:30:23.214Z,7.60
2019-04-28T21:32:51.627Z,7.60
2019-04-28T21:35:20.122Z,7.60
2019-04-28T21:37:48.664Z,7.30
2019-04-28T21:40:18.326Z,7.10
2019-04-28T21:42:54.058Z,6.80
2019-04-28T21:45:24.182Z,6.60
2019-04-28T21:47:52.636Z,6.30
2019-04-28T21:50:21.115Z,6.30
2019-04-28T21:52:49.567Z,6.20
2019-04-28T21:55:18.026Z,6.00
2019-04-28T21:57:47.290Z,6.00
2019-04-28T22:00:17.867Z,5.80
2019-04-28T22:02:46.392Z,5.80
2019-04-28T22:05:14.936Z,5.90
2019-04-28T22:07:43.431Z,6.10
2019-04-28T22:10:11.951Z,6.10
2019-04-28T22:12:40.395Z,6.00
2019-04-28T22:15:08.959Z,5.90
2019-04-28T22:17:37.503Z,5.80
2019-04-28T22:20:07.186Z,5.70
2019-04-28T22:22:35.667Z,5.60
2019-04-28T22:25:07.962Z,5.60
2019-04-28T22:27:41.515Z,5.50
2019-04-28T22:30:09.202Z,5.60
2019-04-28T22:32:37.801Z,5.70
2019-04-28T22:35:07.380Z,5.80
2019-04-28T22:37:35.936Z,5.80
2019-04-28T22:40:06.314Z,5.90
2019-04-28T22:42:34.730Z,5.80
2019-04-28T22:45:03.930Z,5.80
2019-04-28T22:47:32.418Z,5.70
2019-04-28T22:50:00.950Z,5.80
2019-04-28T22:52:29.402Z,6.00
2019-04-28T22:54:59.677Z,6.00
2019-04-28T22:57:45.141Z,6.10
2019-04-28T23:00:34.258Z,6.00
2019-04-28T23:03:02.885Z,5.90
2019-04-28T23:05:31.474Z,5.90
2019-04-28T23:07:59.919Z,5.80
2019-04-28T23:10:28.533Z,5.60
2019-04-28T23:12:56.979Z,5.40
2019-04-28T23:15:25.439Z,5.30
2019-04-28T23:17:54.052Z,5.30
2019-04-28T23:20:24.242Z,5.30
2019-04-28T23:22:52.690Z,5.20
2019-04-28T23:25:21.204Z,5.20
2019-04-28T23:27:49.688Z,5.20
2019-04-28T23:30:36.422Z,5.20
2019-04-28T23:33:05.030Z,5.40
2019-04-28T23:35:33.571Z,5.60
2019-04-28T23:38:02.017Z,5.70
2019-04-28T23:40:30.674Z,5.80
2019-04-28T23:43:06.838Z,5.90
2019-04-28T23:45:35.386Z,6.00
2019-04-28T23:48:03.977Z,6.00
2019-04-28T23:50:34.133Z,5.90
2019-04-28T23:53:04.407Z,5.90
2019-04-28T23:55:32.847Z,5.80
2019-04-28T23:58:01.454Z,5.90
